Kezdőlap
METAR-TAF:

METAR-TAF

Repülőterek :

Lichinga, Mozambik

földrajzi szélesség: 13-18S, földrajzi hosszúság: 035-14E, magasság: 1364 m

Jelenlegi meteorológiai megfigyelések

A jelentés 1 órával és 2 perccel ezelõtt készült, 04:00 UTC
Kelet-északkeleti szél 7 kt
Hőmérséklet 18°C
Páratartalom 68%
Légköri nyomás 1021 hPa
Látótávolság 10 km, vagy több
felhőtlen 1500 m magasságban, és nincs gomolyfelhõ

METAR: FQLC 010400Z 07007KT CAVOK 18/12 Q1021

Idő: 07:02 (05:02 UTC)

Előrejelzés

A jelentés 7 órával és 2 perccel ezelõtt készült, 22:00 UTC
Az előrejelzés 01-én 00 óra UTC és 02-én 00 óra UTC között érvényes
Észak-északkeleti szél 10 kt
Látótávolság 10 km, vagy több
Kevés felhő 2000 lábon
01-én 08 óra UTC és 01-én 12 óra UTC között fokozatosan kialakuló
Keleti szél 10 kt

TAF: FQLC 302200Z 0100/0200 03010KT 9999 FEW020 TX30/0113Z TN16/0102Z BECMG 0108/0112 09010KT

Meteorológiai megfigyelések és előrejelzések több, mint 4000 repülőtéren (METAR és TAF jelentéseket).

A térképen piros és sárga pontok jelzik az elérhető meteorológiai állomásokat.

Mozgassa az egeret a pont fölött, hogy megjelenjen az állomás neve.

Azután kattintson az időjárási megfigyelések és előrejelzések megtekintéséhez.

A térkép megváltoztatása: kattintson a fekete keresztel jelölt zöld gombra ráközelítéshez, a vonallal jelölt zöld gombra távolításhoz, vagy a zöld nyilakra a szomszédos térképek eléréséhez.


METAR-TAF: